sensor_id;sensor_type;location;lat;lon;timestamp;P1;durP1;ratioP1;P2;durP2;ratioP2
5754;SDS011;2902;42.130;24.732;2022-09-17T00:00:41;4.93;;;2.60;;
5754;SDS011;2902;42.130;24.732;2022-09-17T00:03:09;7.83;;;2.57;;
5754;SDS011;2902;42.130;24.732;2022-09-17T00:05:36;4.47;;;2.47;;
5754;SDS011;2902;42.130;24.732;2022-09-17T00:08:03;3.93;;;2.30;;
5754;SDS011;2902;42.130;24.732;2022-09-17T00:10:30;3.90;;;3.00;;
5754;SDS011;2902;42.130;24.732;2022-09-17T00:12:57;3.57;;;2.53;;
5754;SDS011;2902;42.130;24.732;2022-09-17T00:15:24;3.03;;;2.00;;
5754;SDS011;2902;42.130;24.732;2022-09-17T00:17:54;7.20;;;2.30;;
5754;SDS011;2902;42.130;24.732;2022-09-17T00:20:22;2.70;;;2.33;;
5754;SDS011;2902;42.130;24.732;2022-09-17T00:22:50;2.97;;;1.80;;
5754;SDS011;2902;42.130;24.732;2022-09-17T00:25:17;3.03;;;2.13;;
5754;SDS011;2902;42.130;24.732;2022-09-17T00:27:44;6.33;;;2.30;;
5754;SDS011;2902;42.130;24.732;2022-09-17T00:30:12;4.33;;;1.93;;
5754;SDS011;2902;42.130;24.732;2022-09-17T00:32:39;3.73;;;1.97;;
5754;SDS011;2902;42.130;24.732;2022-09-17T00:35:07;3.97;;;1.93;;
5754;SDS011;2902;42.130;24.732;2022-09-17T00:37:34;4.43;;;2.30;;
5754;SDS011;2902;42.130;24.732;2022-09-17T00:40:01;3.03;;;2.20;;
5754;SDS011;2902;42.130;24.732;2022-09-17T00:42:28;7.13;;;2.53;;
5754;SDS011;2902;42.130;24.732;2022-09-17T00:44:55;2.83;;;2.10;;
5754;SDS011;2902;42.130;24.732;2022-09-17T00:47:23;4.83;;;2.40;;
5754;SDS011;2902;42.130;24.732;2022-09-17T00:49:55;6.47;;;2.47;;
5754;SDS011;2902;42.130;24.732;2022-09-17T00:52:27;5.13;;;2.30;;
5754;SDS011;2902;42.130;24.732;2022-09-17T00:54:59;4.10;;;2.20;;
5754;SDS011;2902;42.130;24.732;2022-09-17T00:57:30;6.03;;;2.33;;
5754;SDS011;2902;42.130;24.732;2022-09-17T00:59:58;5.63;;;2.70;;
5754;SDS011;2902;42.130;24.732;2022-09-17T01:02:25;5.53;;;2.80;;
5754;SDS011;2902;42.130;24.732;2022-09-17T01:04:51;4.23;;;2.53;;
5754;SDS011;2902;42.130;24.732;2022-09-17T01:07:29;8.13;;;2.60;;
5754;SDS011;2902;42.130;24.732;2022-09-17T01:10:11;3.37;;;2.80;;
5754;SDS011;2902;42.130;24.732;2022-09-17T01:12:49;6.13;;;3.20;;
5754;SDS011;2902;42.130;24.732;2022-09-17T01:15:29;6.40;;;3.00;;
5754;SDS011;2902;42.130;24.732;2022-09-17T01:18:04;3.57;;;2.60;;
5754;SDS011;2902;42.130;24.732;2022-09-17T01:24:00;3.07;;;2.70;;
5754;SDS011;2902;42.130;24.732;2022-09-17T01:26:52;4.30;;;2.90;;
5754;SDS011;2902;42.130;24.732;2022-09-17T01:29:44;4.30;;;3.00;;
5754;SDS011;2902;42.130;24.732;2022-09-17T01:32:27;5.27;;;3.13;;
5754;SDS011;2902;42.130;24.732;2022-09-17T01:35:00;9.13;;;3.67;;
5754;SDS011;2902;42.130;24.732;2022-09-17T01:37:31;5.57;;;3.70;;
5754;SDS011;2902;42.130;24.732;2022-09-17T01:40:04;8.27;;;3.37;;
5754;SDS011;2902;42.130;24.732;2022-09-17T01:42:34;7.90;;;2.80;;
5754;SDS011;2902;42.130;24.732;2022-09-17T01:45:07;5.57;;;3.03;;
5754;SDS011;2902;42.130;24.732;2022-09-17T01:47:42;7.37;;;2.90;;
5754;SDS011;2902;42.130;24.732;2022-09-17T01:50:15;2.80;;;2.60;;
5754;SDS011;2902;42.130;24.732;2022-09-17T01:52:47;5.00;;;3.13;;
5754;SDS011;2902;42.130;24.732;2022-09-17T01:55:17;6.17;;;3.07;;
5754;SDS011;2902;42.130;24.732;2022-09-17T01:57:47;5.97;;;3.43;;
5754;SDS011;2902;42.130;24.732;2022-09-17T02:00:18;11.63;;;3.37;;
5754;SDS011;2902;42.130;24.732;2022-09-17T02:02:49;7.27;;;2.83;;
5754;SDS011;2902;42.130;24.732;2022-09-17T02:05:23;5.73;;;3.43;;
5754;SDS011;2902;42.130;24.732;2022-09-17T02:07:55;3.97;;;3.20;;
5754;SDS011;2902;42.130;24.732;2022-09-17T02:10:25;5.93;;;3.07;;
5754;SDS011;2902;42.130;24.732;2022-09-17T02:12:57;7.27;;;3.43;;
5754;SDS011;2902;42.130;24.732;2022-09-17T02:15:28;5.53;;;3.23;;
5754;SDS011;2902;42.130;24.732;2022-09-17T02:18:02;6.80;;;3.37;;
5754;SDS011;2902;42.130;24.732;2022-09-17T02:20:35;11.30;;;2.97;;
5754;SDS011;2902;42.130;24.732;2022-09-17T02:23:07;9.83;;;3.60;;
5754;SDS011;2902;42.130;24.732;2022-09-17T02:25:41;9.23;;;3.70;;
5754;SDS011;2902;42.130;24.732;2022-09-17T02:28:13;9.73;;;4.17;;
5754;SDS011;2902;42.130;24.732;2022-09-17T02:30:47;6.07;;;3.73;;
5754;SDS011;2902;42.130;24.732;2022-09-17T02:33:16;6.97;;;3.17;;
5754;SDS011;2902;42.130;24.732;2022-09-17T02:35:44;7.37;;;3.60;;
5754;SDS011;2902;42.130;24.732;2022-09-17T02:38:12;3.07;;;2.87;;
5754;SDS011;2902;42.130;24.732;2022-09-17T02:40:40;5.77;;;3.60;;
5754;SDS011;2902;42.130;24.732;2022-09-17T02:43:16;11.20;;;3.60;;
5754;SDS011;2902;42.130;24.732;2022-09-17T02:45:51;6.33;;;3.47;;
5754;SDS011;2902;42.130;24.732;2022-09-17T02:48:36;4.27;;;3.10;;
5754;SDS011;2902;42.130;24.732;2022-09-17T02:51:27;7.77;;;3.33;;
5754;SDS011;2902;42.130;24.732;2022-09-17T02:54:05;7.70;;;2.97;;
5754;SDS011;2902;42.130;24.732;2022-09-17T02:56:39;8.03;;;3.13;;
5754;SDS011;2902;42.130;24.732;2022-09-17T02:59:14;6.77;;;3.97;;
5754;SDS011;2902;42.130;24.732;2022-09-17T03:01:50;5.43;;;3.63;;
5754;SDS011;2902;42.130;24.732;2022-09-17T03:04:23;11.97;;;3.63;;
5754;SDS011;2902;42.130;24.732;2022-09-17T03:06:53;4.87;;;3.37;;
5754;SDS011;2902;42.130;24.732;2022-09-17T03:09:20;6.93;;;3.77;;
5754;SDS011;2902;42.130;24.732;2022-09-17T03:11:47;10.70;;;3.47;;
5754;SDS011;2902;42.130;24.732;2022-09-17T03:14:14;7.43;;;3.67;;
5754;SDS011;2902;42.130;24.732;2022-09-17T03:16:41;7.67;;;3.90;;
5754;SDS011;2902;42.130;24.732;2022-09-17T03:19:08;7.80;;;3.20;;
5754;SDS011;2902;42.130;24.732;2022-09-17T03:21:36;6.00;;;3.40;;
5754;SDS011;2902;42.130;24.732;2022-09-17T03:24:02;3.77;;;3.00;;
5754;SDS011;2902;42.130;24.732;2022-09-17T03:26:29;5.47;;;2.93;;
5754;SDS011;2902;42.130;24.732;2022-09-17T03:28:56;8.13;;;3.70;;
5754;SDS011;2902;42.130;24.732;2022-09-17T03:31:23;6.80;;;3.30;;
5754;SDS011;2902;42.130;24.732;2022-09-17T03:33:50;5.73;;;3.33;;
5754;SDS011;2902;42.130;24.732;2022-09-17T03:36:16;6.67;;;3.60;;
5754;SDS011;2902;42.130;24.732;2022-09-17T03:38:44;4.13;;;3.10;;
5754;SDS011;2902;42.130;24.732;2022-09-17T03:41:11;9.93;;;3.50;;
5754;SDS011;2902;42.130;24.732;2022-09-17T03:43:38;12.67;;;4.27;;
5754;SDS011;2902;42.130;24.732;2022-09-17T03:46:05;10.47;;;3.67;;
5754;SDS011;2902;42.130;24.732;2022-09-17T03:48:31;8.27;;;3.30;;
5754;SDS011;2902;42.130;24.732;2022-09-17T03:51:01;11.17;;;3.87;;
5754;SDS011;2902;42.130;24.732;2022-09-17T03:53:28;9.33;;;3.90;;
5754;SDS011;2902;42.130;24.732;2022-09-17T03:55:57;7.13;;;3.60;;
5754;SDS011;2902;42.130;24.732;2022-09-17T03:58:25;7.03;;;3.33;;
5754;SDS011;2902;42.130;24.732;2022-09-17T04:00:51;6.53;;;3.17;;
5754;SDS011;2902;42.130;24.732;2022-09-17T04:03:20;12.60;;;3.77;;
5754;SDS011;2902;42.130;24.732;2022-09-17T04:05:47;4.43;;;3.10;;
5754;SDS011;2902;42.130;24.732;2022-09-17T04:08:14;5.30;;;3.50;;
5754;SDS011;2902;42.130;24.732;2022-09-17T04:10:40;5.97;;;3.33;;
5754;SDS011;2902;42.130;24.732;2022-09-17T04:13:09;7.20;;;3.63;;
5754;SDS011;2902;42.130;24.732;2022-09-17T04:15:36;5.73;;;3.30;;
5754;SDS011;2902;42.130;24.732;2022-09-17T04:18:04;4.23;;;3.03;;
5754;SDS011;2902;42.130;24.732;2022-09-17T04:20:31;5.37;;;2.63;;
5754;SDS011;2902;42.130;24.732;2022-09-17T04:22:57;21.97;;;4.40;;
5754;SDS011;2902;42.130;24.732;2022-09-17T04:25:24;4.60;;;3.00;;
5754;SDS011;2902;42.130;24.732;2022-09-17T04:27:51;5.97;;;2.97;;
5754;SDS011;2902;42.130;24.732;2022-09-17T04:30:19;6.60;;;3.40;;
5754;SDS011;2902;42.130;24.732;2022-09-17T04:32:46;11.67;;;3.13;;
5754;SDS011;2902;42.130;24.732;2022-09-17T04:35:12;8.00;;;3.27;;
5754;SDS011;2902;42.130;24.732;2022-09-17T04:37:39;7.50;;;3.00;;
5754;SDS011;2902;42.130;24.732;2022-09-17T04:40:07;4.77;;;3.03;;
5754;SDS011;2902;42.130;24.732;2022-09-17T04:42:34;5.77;;;2.97;;
5754;SDS011;2902;42.130;24.732;2022-09-17T04:45:01;6.13;;;2.93;;
5754;SDS011;2902;42.130;24.732;2022-09-17T04:47:29;5.27;;;3.20;;
5754;SDS011;2902;42.130;24.732;2022-09-17T04:49:56;11.03;;;3.23;;
5754;SDS011;2902;42.130;24.732;2022-09-17T04:52:23;4.63;;;3.00;;
5754;SDS011;2902;42.130;24.732;2022-09-17T04:54:50;5.07;;;4.13;;
5754;SDS011;2902;42.130;24.732;2022-09-17T04:57:16;11.33;;;4.40;;
5754;SDS011;2902;42.130;24.732;2022-09-17T04:59:43;8.57;;;4.10;;
5754;SDS011;2902;42.130;24.732;2022-09-17T05:02:10;4.27;;;3.33;;
5754;SDS011;2902;42.130;24.732;2022-09-17T05:04:38;5.77;;;3.60;;
5754;SDS011;2902;42.130;24.732;2022-09-17T05:07:05;15.13;;;4.33;;
5754;SDS011;2902;42.130;24.732;2022-09-17T05:09:31;15.20;;;4.20;;
5754;SDS011;2902;42.130;24.732;2022-09-17T05:11:58;10.83;;;4.13;;
5754;SDS011;2902;42.130;24.732;2022-09-17T05:14:25;6.93;;;3.90;;
5754;SDS011;2902;42.130;24.732;2022-09-17T05:16:51;4.50;;;3.30;;
5754;SDS011;2902;42.130;24.732;2022-09-17T05:19:18;11.73;;;3.77;;
5754;SDS011;2902;42.130;24.732;2022-09-17T05:21:46;8.10;;;2.87;;
5754;SDS011;2902;42.130;24.732;2022-09-17T05:24:13;8.53;;;3.30;;
5754;SDS011;2902;42.130;24.732;2022-09-17T05:26:40;4.10;;;3.50;;
5754;SDS011;2902;42.130;24.732;2022-09-17T05:29:06;5.33;;;3.07;;
5754;SDS011;2902;42.130;24.732;2022-09-17T05:31:33;5.80;;;2.73;;
5754;SDS011;2902;42.130;24.732;2022-09-17T05:34:00;9.63;;;3.10;;
5754;SDS011;2902;42.130;24.732;2022-09-17T05:36:26;5.00;;;2.83;;
5754;SDS011;2902;42.130;24.732;2022-09-17T05:38:54;5.23;;;2.53;;
5754;SDS011;2902;42.130;24.732;2022-09-17T05:41:21;5.37;;;2.97;;
5754;SDS011;2902;42.130;24.732;2022-09-17T05:43:48;7.77;;;2.90;;
5754;SDS011;2902;42.130;24.732;2022-09-17T05:46:15;9.90;;;3.03;;
5754;SDS011;2902;42.130;24.732;2022-09-17T05:48:42;10.77;;;2.80;;
5754;SDS011;2902;42.130;24.732;2022-09-17T05:51:08;9.90;;;3.13;;
5754;SDS011;2902;42.130;24.732;2022-09-17T05:53:35;6.63;;;2.70;;
5754;SDS011;2902;42.130;24.732;2022-09-17T05:56:04;6.70;;;3.07;;
5754;SDS011;2902;42.130;24.732;2022-09-17T05:58:31;6.77;;;3.13;;
5754;SDS011;2902;42.130;24.732;2022-09-17T06:00:59;9.73;;;3.33;;
5754;SDS011;2902;42.130;24.732;2022-09-17T06:03:26;6.30;;;3.20;;
5754;SDS011;2902;42.130;24.732;2022-09-17T06:05:53;9.67;;;3.20;;
5754;SDS011;2902;42.130;24.732;2022-09-17T06:08:22;7.63;;;2.90;;
5754;SDS011;2902;42.130;24.732;2022-09-17T06:10:50;8.63;;;2.93;;
5754;SDS011;2902;42.130;24.732;2022-09-17T06:13:18;11.30;;;3.40;;
5754;SDS011;2902;42.130;24.732;2022-09-17T06:15:48;8.07;;;3.10;;
5754;SDS011;2902;42.130;24.732;2022-09-17T06:18:16;9.27;;;3.30;;
5754;SDS011;2902;42.130;24.732;2022-09-17T06:20:50;5.83;;;3.23;;
5754;SDS011;2902;42.130;24.732;2022-09-17T06:23:18;11.60;;;3.30;;
5754;SDS011;2902;42.130;24.732;2022-09-17T06:25:48;7.43;;;2.83;;
5754;SDS011;2902;42.130;24.732;2022-09-17T06:28:16;7.27;;;3.17;;
5754;SDS011;2902;42.130;24.732;2022-09-17T06:30:44;6.67;;;2.93;;
5754;SDS011;2902;42.130;24.732;2022-09-17T06:33:11;25.47;;;5.10;;
5754;SDS011;2902;42.130;24.732;2022-09-17T06:35:38;7.20;;;2.97;;
5754;SDS011;2902;42.130;24.732;2022-09-17T06:38:05;4.03;;;3.10;;
5754;SDS011;2902;42.130;24.732;2022-09-17T06:40:32;9.13;;;3.07;;
5754;SDS011;2902;42.130;24.732;2022-09-17T06:42:59;6.40;;;3.03;;
5754;SDS011;2902;42.130;24.732;2022-09-17T06:45:26;3.53;;;2.87;;
5754;SDS011;2902;42.130;24.732;2022-09-17T06:47:54;7.50;;;3.00;;
5754;SDS011;2902;42.130;24.732;2022-09-17T06:50:21;7.07;;;3.23;;
5754;SDS011;2902;42.130;24.732;2022-09-17T06:52:49;5.73;;;2.57;;
5754;SDS011;2902;42.130;24.732;2022-09-17T06:55:16;6.07;;;2.80;;
5754;SDS011;2902;42.130;24.732;2022-09-17T06:57:43;6.93;;;3.10;;
5754;SDS011;2902;42.130;24.732;2022-09-17T07:00:10;5.37;;;3.13;;
5754;SDS011;2902;42.130;24.732;2022-09-17T07:02:38;5.80;;;2.93;;
5754;SDS011;2902;42.130;24.732;2022-09-17T07:05:07;3.30;;;2.60;;
5754;SDS011;2902;42.130;24.732;2022-09-17T07:07:34;7.83;;;2.87;;
5754;SDS011;2902;42.130;24.732;2022-09-17T07:10:01;10.93;;;3.93;;
5754;SDS011;2902;42.130;24.732;2022-09-17T07:12:27;9.63;;;3.93;;
5754;SDS011;2902;42.130;24.732;2022-09-17T07:14:54;8.27;;;3.40;;
5754;SDS011;2902;42.130;24.732;2022-09-17T07:17:21;10.90;;;3.30;;
5754;SDS011;2902;42.130;24.732;2022-09-17T07:19:47;11.00;;;3.47;;
5754;SDS011;2902;42.130;24.732;2022-09-17T07:22:16;18.27;;;3.60;;
5754;SDS011;2902;42.130;24.732;2022-09-17T07:24:43;16.87;;;3.30;;
5754;SDS011;2902;42.130;24.732;2022-09-17T07:27:10;15.03;;;3.80;;
5754;SDS011;2902;42.130;24.732;2022-09-17T07:29:37;9.90;;;3.80;;
5754;SDS011;2902;42.130;24.732;2022-09-17T07:32:05;10.53;;;2.90;;
5754;SDS011;2902;42.130;24.732;2022-09-17T07:34:32;8.30;;;2.80;;
5754;SDS011;2902;42.130;24.732;2022-09-17T07:36:59;8.63;;;3.90;;
5754;SDS011;2902;42.130;24.732;2022-09-17T07:39:27;10.77;;;3.87;;
5754;SDS011;2902;42.130;24.732;2022-09-17T07:41:53;5.07;;;3.13;;
5754;SDS011;2902;42.130;24.732;2022-09-17T07:44:20;8.30;;;3.37;;
5754;SDS011;2902;42.130;24.732;2022-09-17T07:46:47;6.93;;;3.63;;
5754;SDS011;2902;42.130;24.732;2022-09-17T07:49:14;5.67;;;3.70;;
5754;SDS011;2902;42.130;24.732;2022-09-17T07:51:40;10.73;;;3.47;;
5754;SDS011;2902;42.130;24.732;2022-09-17T07:54:07;9.13;;;3.93;;
5754;SDS011;2902;42.130;24.732;2022-09-17T07:56:35;16.37;;;3.80;;
5754;SDS011;2902;42.130;24.732;2022-09-17T07:59:02;6.10;;;3.50;;
5754;SDS011;2902;42.130;24.732;2022-09-17T08:01:30;10.03;;;3.60;;
5754;SDS011;2902;42.130;24.732;2022-09-17T08:04:00;9.40;;;3.13;;
5754;SDS011;2902;42.130;24.732;2022-09-17T08:06:28;3.67;;;2.70;;
5754;SDS011;2902;42.130;24.732;2022-09-17T08:08:55;11.33;;;3.63;;
5754;SDS011;2902;42.130;24.732;2022-09-17T08:11:24;8.13;;;2.83;;
5754;SDS011;2902;42.130;24.732;2022-09-17T08:13:54;11.63;;;3.07;;
5754;SDS011;2902;42.130;24.732;2022-09-17T08:16:21;14.57;;;3.33;;
5754;SDS011;2902;42.130;24.732;2022-09-17T08:18:52;8.10;;;3.00;;
5754;SDS011;2902;42.130;24.732;2022-09-17T08:21:20;10.73;;;2.93;;
5754;SDS011;2902;42.130;24.732;2022-09-17T08:23:48;5.47;;;3.00;;
5754;SDS011;2902;42.130;24.732;2022-09-17T08:26:15;7.77;;;2.80;;
5754;SDS011;2902;42.130;24.732;2022-09-17T08:28:43;8.30;;;3.10;;
5754;SDS011;2902;42.130;24.732;2022-09-17T08:31:13;12.03;;;2.83;;
5754;SDS011;2902;42.130;24.732;2022-09-17T08:33:41;5.80;;;2.47;;
5754;SDS011;2902;42.130;24.732;2022-09-17T08:36:09;6.83;;;2.57;;
5754;SDS011;2902;42.130;24.732;2022-09-17T08:38:37;16.83;;;3.40;;
5754;SDS011;2902;42.130;24.732;2022-09-17T08:41:08;4.50;;;2.37;;
5754;SDS011;2902;42.130;24.732;2022-09-17T08:43:45;9.73;;;2.63;;
5754;SDS011;2902;42.130;24.732;2022-09-17T08:46:19;3.47;;;2.53;;
5754;SDS011;2902;42.130;24.732;2022-09-17T08:48:49;7.83;;;2.43;;
5754;SDS011;2902;42.130;24.732;2022-09-17T08:51:22;4.23;;;2.37;;
5754;SDS011;2902;42.130;24.732;2022-09-17T08:53:57;7.47;;;2.70;;
5754;SDS011;2902;42.130;24.732;2022-09-17T08:56:32;8.13;;;2.50;;
5754;SDS011;2902;42.130;24.732;2022-09-17T08:59:03;5.60;;;2.40;;
5754;SDS011;2902;42.130;24.732;2022-09-17T09:01:43;11.57;;;3.13;;
5754;SDS011;2902;42.130;24.732;2022-09-17T09:04:24;8.87;;;3.10;;
5754;SDS011;2902;42.130;24.732;2022-09-17T09:07:05;5.03;;;2.77;;
5754;SDS011;2902;42.130;24.732;2022-09-17T09:09:35;10.03;;;2.67;;
5754;SDS011;2902;42.130;24.732;2022-09-17T09:12:08;8.07;;;2.80;;
5754;SDS011;2902;42.130;24.732;2022-09-17T09:14:39;10.43;;;3.10;;
5754;SDS011;2902;42.130;24.732;2022-09-17T09:17:16;7.83;;;3.10;;
5754;SDS011;2902;42.130;24.732;2022-09-17T09:19:47;13.07;;;3.27;;
5754;SDS011;2902;42.130;24.732;2022-09-17T09:22:21;5.13;;;2.80;;
5754;SDS011;2902;42.130;24.732;2022-09-17T09:25:00;4.77;;;2.80;;
5754;SDS011;2902;42.130;24.732;2022-09-17T09:27:37;9.87;;;2.70;;
5754;SDS011;2902;42.130;24.732;2022-09-17T09:30:14;6.17;;;2.70;;
5754;SDS011;2902;42.130;24.732;2022-09-17T09:32:47;10.32;;;3.00;;
5754;SDS011;2902;42.130;24.732;2022-09-17T09:35:22;9.93;;;3.15;;
5754;SDS011;2902;42.130;24.732;2022-09-17T09:37:53;13.97;;;3.37;;
5754;SDS011;2902;42.130;24.732;2022-09-17T09:40:32;6.97;;;3.43;;
5754;SDS011;2902;42.130;24.732;2022-09-17T09:43:07;7.10;;;2.83;;
5754;SDS011;2902;42.130;24.732;2022-09-17T09:45:46;10.00;;;2.90;;
5754;SDS011;2902;42.130;24.732;2022-09-17T09:48:28;6.33;;;2.60;;
5754;SDS011;2902;42.130;24.732;2022-09-17T09:51:06;5.20;;;2.50;;
5754;SDS011;2902;42.130;24.732;2022-09-17T09:53:43;7.73;;;2.77;;
5754;SDS011;2902;42.130;24.732;2022-09-17T09:56:27;6.67;;;2.47;;
5754;SDS011;2902;42.130;24.732;2022-09-17T09:59:05;5.10;;;2.67;;
5754;SDS011;2902;42.130;24.732;2022-09-17T10:01:32;8.63;;;2.80;;
5754;SDS011;2902;42.130;24.732;2022-09-17T10:04:07;5.37;;;2.53;;
5754;SDS011;2902;42.130;24.732;2022-09-17T10:06:41;6.43;;;2.80;;
5754;SDS011;2902;42.130;24.732;2022-09-17T10:09:09;6.05;;;2.63;;
5754;SDS011;2902;42.130;24.732;2022-09-17T10:11:37;6.10;;;2.77;;
5754;SDS011;2902;42.130;24.732;2022-09-17T10:14:14;4.30;;;2.67;;
5754;SDS011;2902;42.130;24.732;2022-09-17T10:16:48;4.97;;;2.73;;
5754;SDS011;2902;42.130;24.732;2022-09-17T10:19:19;5.13;;;2.60;;
5754;SDS011;2902;42.130;24.732;2022-09-17T10:21:49;7.93;;;2.60;;
5754;SDS011;2902;42.130;24.732;2022-09-17T10:24:20;5.60;;;2.37;;
5754;SDS011;2902;42.130;24.732;2022-09-17T10:26:49;5.37;;;2.50;;
5754;SDS011;2902;42.130;24.732;2022-09-17T10:29:17;5.83;;;2.93;;
5754;SDS011;2902;42.130;24.732;2022-09-17T10:31:46;12.70;;;3.17;;
5754;SDS011;2902;42.130;24.732;2022-09-17T10:34:19;8.27;;;3.17;;
5754;SDS011;2902;42.130;24.732;2022-09-17T10:36:48;8.33;;;2.97;;
5754;SDS011;2902;42.130;24.732;2022-09-17T10:39:32;9.33;;;3.10;;
5754;SDS011;2902;42.130;24.732;2022-09-17T10:42:01;6.93;;;2.97;;
5754;SDS011;2902;42.130;24.732;2022-09-17T10:44:30;16.97;;;4.23;;
5754;SDS011;2902;42.130;24.732;2022-09-17T10:47:04;3.60;;;3.00;;
5754;SDS011;2902;42.130;24.732;2022-09-17T10:49:39;13.83;;;4.00;;
5754;SDS011;2902;42.130;24.732;2022-09-17T10:52:10;12.10;;;4.30;;
5754;SDS011;2902;42.130;24.732;2022-09-17T10:54:52;14.33;;;3.73;;
5754;SDS011;2902;42.130;24.732;2022-09-17T10:58:03;12.97;;;3.43;;
5754;SDS011;2902;42.130;24.732;2022-09-17T11:00:41;8.83;;;3.80;;
5754;SDS011;2902;42.130;24.732;2022-09-17T11:03:20;10.90;;;3.57;;
5754;SDS011;2902;42.130;24.732;2022-09-17T11:06:19;10.07;;;3.53;;
5754;SDS011;2902;42.130;24.732;2022-09-17T11:08:58;8.77;;;3.50;;
5754;SDS011;2902;42.130;24.732;2022-09-17T11:11:37;8.13;;;3.53;;
5754;SDS011;2902;42.130;24.732;2022-09-17T11:14:16;10.83;;;3.90;;
5754;SDS011;2902;42.130;24.732;2022-09-17T11:17:01;6.17;;;3.30;;
5754;SDS011;2902;42.130;24.732;2022-09-17T11:19:37;13.87;;;4.20;;
5754;SDS011;2902;42.130;24.732;2022-09-17T11:22:15;19.47;;;4.43;;
5754;SDS011;2902;42.130;24.732;2022-09-17T11:24:52;13.00;;;3.93;;
5754;SDS011;2902;42.130;24.732;2022-09-17T11:27:39;12.43;;;3.70;;
5754;SDS011;2902;42.130;24.732;2022-09-17T11:30:15;4.50;;;2.27;;
5754;SDS011;2902;42.130;24.732;2022-09-17T11:32:51;5.77;;;2.40;;
5754;SDS011;2902;42.130;24.732;2022-09-17T11:35:31;4.77;;;2.20;;
5754;SDS011;2902;42.130;24.732;2022-09-17T11:38:04;5.17;;;1.83;;
5754;SDS011;2902;42.130;24.732;2022-09-17T11:40:38;7.90;;;2.53;;
5754;SDS011;2902;42.130;24.732;2022-09-17T11:43:13;3.87;;;1.63;;
5754;SDS011;2902;42.130;24.732;2022-09-17T11:45:47;4.20;;;2.10;;
5754;SDS011;2902;42.130;24.732;2022-09-17T11:48:23;2.90;;;1.30;;
5754;SDS011;2902;42.130;24.732;2022-09-17T11:50:57;2.83;;;1.13;;
5754;SDS011;2902;42.130;24.732;2022-09-17T11:53:33;2.63;;;1.03;;
5754;SDS011;2902;42.130;24.732;2022-09-17T11:56:08;1.83;;;1.50;;
5754;SDS011;2902;42.130;24.732;2022-09-17T11:58:43;7.23;;;1.50;;
5754;SDS011;2902;42.130;24.732;2022-09-17T12:01:14;1.30;;;1.03;;
5754;SDS011;2902;42.130;24.732;2022-09-17T12:03:48;3.03;;;0.90;;
5754;SDS011;2902;42.130;24.732;2022-09-17T12:06:22;1.13;;;0.90;;
5754;SDS011;2902;42.130;24.732;2022-09-17T12:08:59;1.27;;;1.13;;
5754;SDS011;2902;42.130;24.732;2022-09-17T12:11:32;3.23;;;1.10;;
5754;SDS011;2902;42.130;24.732;2022-09-17T12:14:04;2.03;;;1.20;;
5754;SDS011;2902;42.130;24.732;2022-09-17T12:16:39;1.43;;;1.17;;
5754;SDS011;2902;42.130;24.732;2022-09-17T12:19:10;1.87;;;0.80;;
5754;SDS011;2902;42.130;24.732;2022-09-17T12:21:43;4.83;;;1.27;;
5754;SDS011;2902;42.130;24.732;2022-09-17T12:24:13;1.27;;;1.17;;
5754;SDS011;2902;42.130;24.732;2022-09-17T12:26:53;1.47;;;1.30;;
5754;SDS011;2902;42.130;24.732;2022-09-17T12:32:22;4.20;;;1.00;;
5754;SDS011;2902;42.130;24.732;2022-09-17T12:35:13;1.37;;;0.93;;
5754;SDS011;2902;42.130;24.732;2022-09-17T12:37:48;1.43;;;1.33;;
5754;SDS011;2902;42.130;24.732;2022-09-17T12:40:34;1.43;;;1.33;;
5754;SDS011;2902;42.130;24.732;2022-09-17T12:43:08;2.23;;;1.10;;
5754;SDS011;2902;42.130;24.732;2022-09-17T12:45:52;1.97;;;1.00;;
5754;SDS011;2902;42.130;24.732;2022-09-17T12:48:53;3.43;;;0.97;;
5754;SDS011;2902;42.130;24.732;2022-09-17T12:51:42;2.17;;;1.03;;
5754;SDS011;2902;42.130;24.732;2022-09-17T12:54:21;1.70;;;0.90;;
5754;SDS011;2902;42.130;24.732;2022-09-17T12:57:02;2.17;;;1.10;;
5754;SDS011;2902;42.130;24.732;2022-09-17T12:59:35;2.73;;;1.80;;
5754;SDS011;2902;42.130;24.732;2022-09-17T13:02:11;2.30;;;1.93;;
5754;SDS011;2902;42.130;24.732;2022-09-17T13:04:49;2.70;;;2.50;;
5754;SDS011;2902;42.130;24.732;2022-09-17T13:13:47;2.73;;;1.70;;
5754;SDS011;2902;42.130;24.732;2022-09-17T13:16:22;3.73;;;2.00;;
5754;SDS011;2902;42.130;24.732;2022-09-17T13:18:53;5.63;;;1.60;;
5754;SDS011;2902;42.130;24.732;2022-09-17T13:21:28;4.47;;;1.47;;
5754;SDS011;2902;42.130;24.732;2022-09-17T13:23:58;1.87;;;1.37;;
5754;SDS011;2902;42.130;24.732;2022-09-17T13:26:32;1.77;;;1.50;;
5754;SDS011;2902;42.130;24.732;2022-09-17T13:29:02;4.93;;;1.40;;
5754;SDS011;2902;42.130;24.732;2022-09-17T13:31:46;1.43;;;1.30;;
5754;SDS011;2902;42.130;24.732;2022-09-17T13:37:00;2.77;;;0.93;;
5754;SDS011;2902;42.130;24.732;2022-09-17T13:42:14;2.10;;;1.80;;
5754;SDS011;2902;42.130;24.732;2022-09-17T13:44:48;1.30;;;1.20;;
5754;SDS011;2902;42.130;24.732;2022-09-17T13:47:24;1.40;;;1.30;;
5754;SDS011;2902;42.130;24.732;2022-09-17T13:49:54;2.77;;;1.20;;
5754;SDS011;2902;42.130;24.732;2022-09-17T13:52:29;3.47;;;1.57;;
5754;SDS011;2902;42.130;24.732;2022-09-17T13:54:58;3.30;;;1.10;;
5754;SDS011;2902;42.130;24.732;2022-09-17T13:57:25;1.50;;;1.40;;
5754;SDS011;2902;42.130;24.732;2022-09-17T13:59:55;3.93;;;1.33;;
5754;SDS011;2902;42.130;24.732;2022-09-17T14:02:29;2.63;;;1.40;;
5754;SDS011;2902;42.130;24.732;2022-09-17T14:10:53;3.30;;;1.47;;
5754;SDS011;2902;42.130;24.732;2022-09-17T14:13:37;1.57;;;1.47;;
5754;SDS011;2902;42.130;24.732;2022-09-17T14:16:29;4.37;;;2.17;;
5754;SDS011;2902;42.130;24.732;2022-09-17T14:19:01;1.50;;;1.40;;
5754;SDS011;2902;42.130;24.732;2022-09-17T14:21:42;1.67;;;1.57;;
5754;SDS011;2902;42.130;24.732;2022-09-17T14:24:21;3.50;;;2.63;;
5754;SDS011;2902;42.130;24.732;2022-09-17T14:26:54;5.23;;;2.53;;
5754;SDS011;2902;42.130;24.732;2022-09-17T14:29:39;3.93;;;3.20;;
5754;SDS011;2902;42.130;24.732;2022-09-17T14:32:17;5.37;;;2.63;;
5754;SDS011;2902;42.130;24.732;2022-09-17T14:34:49;3.67;;;2.23;;
5754;SDS011;2902;42.130;24.732;2022-09-17T14:37:17;3.33;;;1.80;;
5754;SDS011;2902;42.130;24.732;2022-09-17T14:39:46;3.37;;;2.40;;
5754;SDS011;2902;42.130;24.732;2022-09-17T14:42:15;4.77;;;2.20;;
5754;SDS011;2902;42.130;24.732;2022-09-17T14:44:47;3.63;;;2.43;;
5754;SDS011;2902;42.130;24.732;2022-09-17T14:47:24;3.07;;;2.73;;
5754;SDS011;2902;42.130;24.732;2022-09-17T14:49:52;6.50;;;2.60;;
5754;SDS011;2902;42.130;24.732;2022-09-17T14:52:22;3.07;;;2.77;;
5754;SDS011;2902;42.130;24.732;2022-09-17T14:57:41;3.27;;;2.80;;
5754;SDS011;2902;42.130;24.732;2022-09-17T15:00:15;4.00;;;3.60;;
5754;SDS011;2902;42.130;24.732;2022-09-17T15:02:48;6.93;;;3.43;;
5754;SDS011;2902;42.130;24.732;2022-09-17T15:05:26;5.03;;;3.20;;
5754;SDS011;2902;42.130;24.732;2022-09-17T15:10:48;3.03;;;2.83;;
5754;SDS011;2902;42.130;24.732;2022-09-17T15:13:19;4.10;;;3.80;;
5754;SDS011;2902;42.130;24.732;2022-09-17T15:15:53;4.43;;;4.03;;
5754;SDS011;2902;42.130;24.732;2022-09-17T15:18:28;17.47;;;4.93;;
5754;SDS011;2902;42.130;24.732;2022-09-17T15:20:58;23.73;;;5.03;;
5754;SDS011;2902;42.130;24.732;2022-09-17T15:23:26;7.03;;;4.47;;
5754;SDS011;2902;42.130;24.732;2022-09-17T15:25:55;6.60;;;4.23;;
5754;SDS011;2902;42.130;24.732;2022-09-17T15:28:26;10.23;;;4.30;;
5754;SDS011;2902;42.130;24.732;2022-09-17T15:30:56;6.67;;;4.10;;
5754;SDS011;2902;42.130;24.732;2022-09-17T15:33:23;6.07;;;3.47;;
5754;SDS011;2902;42.130;24.732;2022-09-17T15:36:00;7.50;;;3.50;;
5754;SDS011;2902;42.130;24.732;2022-09-17T15:38:38;4.27;;;3.63;;
5754;SDS011;2902;42.130;24.732;2022-09-17T15:44:04;4.57;;;4.20;;
5754;SDS011;2902;42.130;24.732;2022-09-17T15:46:32;5.10;;;4.37;;
5754;SDS011;2902;42.130;24.732;2022-09-17T15:49:00;7.87;;;4.67;;
5754;SDS011;2902;42.130;24.732;2022-09-17T15:51:29;7.00;;;4.13;;
5754;SDS011;2902;42.130;24.732;2022-09-17T15:53:57;8.60;;;3.97;;
5754;SDS011;2902;42.130;24.732;2022-09-17T15:56:26;8.90;;;4.03;;
5754;SDS011;2902;42.130;24.732;2022-09-17T15:58:57;9.90;;;3.13;;